createdAt,value
2022-11-16T00:02:32.580Z,5.22
2022-11-16T00:05:37.336Z,4.95
2022-11-16T00:09:07.887Z,7.32
2022-11-16T00:12:12.776Z,7.10
2022-11-16T00:15:17.304Z,7.03
2022-11-16T00:18:22.198Z,7.80
2022-11-16T00:21:27.594Z,7.88
2022-11-16T00:24:32.191Z,6.53
2022-11-16T00:27:36.809Z,7.80
2022-11-16T00:30:41.342Z,8.32
2022-11-16T00:33:47.655Z,8.32
2022-11-16T00:36:52.640Z,8.30
2022-11-16T00:39:56.993Z,7.60
2022-11-16T00:43:01.519Z,6.10
2022-11-16T00:46:06.243Z,7.35
2022-11-16T00:49:11.429Z,9.15
2022-11-16T00:52:15.998Z,7.43
2022-11-16T00:55:21.577Z,7.65
2022-11-16T00:58:26.307Z,7.93
2022-11-16T01:01:39.329Z,6.65
2022-11-16T01:04:44.943Z,7.20
2022-11-16T01:07:50.465Z,7.22
2022-11-16T01:10:55.011Z,5.97
2022-11-16T01:14:03.926Z,9.10
2022-11-16T01:17:09.123Z,8.35
2022-11-16T01:20:19.430Z,7.30
2022-11-16T01:23:23.961Z,8.45
2022-11-16T01:26:29.743Z,7.65
2022-11-16T01:29:34.940Z,9.00
2022-11-16T01:32:40.267Z,9.55
2022-11-16T01:35:45.564Z,8.05
2022-11-16T01:38:52.672Z,9.50
2022-11-16T01:42:01.082Z,7.05
2022-11-16T01:45:17.528Z,6.45
2022-11-16T01:48:29.892Z,7.40
2022-11-16T01:51:36.633Z,5.55
2022-11-16T01:54:44.965Z,8.43
2022-11-16T01:57:50.904Z,8.95
2022-11-16T02:00:55.380Z,7.95
2022-11-16T02:04:19.351Z,7.75
2022-11-16T02:08:06.361Z,6.45
2022-11-16T02:11:58.168Z,8.00
2022-11-16T02:15:25.323Z,6.28
2022-11-16T02:18:52.153Z,5.50
2022-11-16T02:22:47.283Z,5.05
2022-11-16T02:26:26.851Z,6.15
2022-11-16T02:29:54.566Z,4.97
2022-11-16T02:33:09.955Z,6.05
2022-11-16T02:36:20.435Z,5.63
2022-11-16T02:39:28.388Z,4.97
2022-11-16T02:42:47.666Z,7.68
2022-11-16T02:45:57.733Z,5.82
2022-11-16T02:49:10.736Z,6.57
2022-11-16T02:52:17.885Z,5.80
2022-11-16T02:55:23.936Z,5.70
2022-11-16T02:58:29.210Z,5.45
2022-11-16T03:01:40.770Z,5.60
2022-11-16T03:04:59.728Z,5.00
2022-11-16T03:08:46.259Z,6.43
2022-11-16T03:12:00.170Z,5.68
2022-11-16T03:15:10.890Z,5.32
2022-11-16T03:18:17.194Z,4.85
2022-11-16T03:21:33.092Z,6.43
2022-11-16T03:24:40.915Z,5.40
2022-11-16T03:28:21.555Z,5.75
2022-11-16T03:31:39.134Z,5.70
2022-11-16T03:34:54.627Z,7.53
2022-11-16T03:38:02.902Z,7.82
2022-11-16T03:41:10.384Z,7.00
2022-11-16T03:44:18.731Z,5.28
2022-11-16T03:47:24.051Z,4.85
2022-11-16T03:50:29.234Z,4.53
2022-11-16T03:53:34.180Z,4.30
2022-11-16T03:56:38.903Z,7.05
2022-11-16T03:59:43.582Z,5.43
2022-11-16T04:02:48.623Z,4.70
2022-11-16T04:06:17.839Z,4.80
2022-11-16T04:09:40.383Z,5.85
2022-11-16T04:13:04.239Z,5.43
2022-11-16T04:16:28.942Z,4.80
2022-11-16T04:19:57.748Z,5.53
2022-11-16T04:23:29.036Z,4.07
2022-11-16T04:26:53.279Z,4.88
2022-11-16T04:29:59.595Z,5.15
2022-11-16T04:33:24.492Z,4.35
2022-11-16T04:36:48.294Z,4.63
2022-11-16T04:39:53.253Z,4.47
2022-11-16T04:43:03.258Z,3.72
2022-11-16T04:46:30.319Z,3.97
2022-11-16T04:49:35.127Z,4.00
2022-11-16T04:52:40.083Z,4.10
2022-11-16T04:55:50.365Z,4.03
2022-11-16T04:58:56.993Z,4.20
2022-11-16T05:02:10.333Z,3.67
2022-11-16T05:05:23.813Z,3.90
2022-11-16T05:08:30.416Z,3.60
2022-11-16T05:11:36.824Z,3.10
2022-11-16T05:14:42.565Z,2.20
2022-11-16T05:17:47.640Z,1.92
2022-11-16T05:21:00.340Z,1.88
2022-11-16T05:24:26.009Z,1.25
2022-11-16T05:27:31.617Z,1.17
2022-11-16T05:30:37.320Z,1.25
2022-11-16T05:33:42.740Z,1.20
2022-11-16T05:36:48.695Z,1.40
2022-11-16T05:39:54.909Z,1.25
2022-11-16T05:43:03.930Z,1.48
2022-11-16T05:46:13.476Z,1.20
2022-11-16T05:49:19.386Z,1.20
2022-11-16T05:52:23.721Z,1.10
2022-11-16T05:55:28.713Z,1.20
2022-11-16T05:58:34.363Z,1.10
2022-11-16T06:01:40.249Z,1.10
2022-11-16T06:04:45.846Z,1.00
2022-11-16T06:07:50.614Z,1.20
2022-11-16T06:10:55.863Z,1.42
2022-11-16T06:14:00.885Z,1.10
2022-11-16T06:17:05.882Z,1.33
2022-11-16T06:20:11.460Z,1.60
2022-11-16T06:23:17.089Z,1.73
2022-11-16T06:26:21.508Z,1.63
2022-11-16T06:29:25.801Z,2.20
2022-11-16T06:32:31.115Z,2.42
2022-11-16T06:35:35.719Z,1.92
2022-11-16T06:38:41.917Z,2.50
2022-11-16T06:41:47.748Z,2.20
2022-11-16T06:44:52.576Z,2.40
2022-11-16T06:48:02.637Z,2.22
2022-11-16T06:51:07.421Z,2.25
2022-11-16T06:54:12.394Z,2.00
2022-11-16T06:57:17.058Z,2.50
2022-11-16T07:00:21.775Z,2.22
2022-11-16T07:03:27.623Z,2.58
2022-11-16T07:06:32.336Z,1.90
2022-11-16T07:09:37.759Z,2.30
2022-11-16T07:12:42.401Z,2.08
2022-11-16T07:15:47.114Z,1.88
2022-11-16T07:18:51.702Z,2.40
2022-11-16T07:21:56.484Z,1.70
2022-11-16T07:25:01.542Z,1.55
2022-11-16T07:28:06.387Z,1.60
2022-11-16T07:31:14.740Z,1.70
2022-11-16T07:34:20.838Z,1.50
2022-11-16T07:37:31.388Z,1.70
2022-11-16T07:40:36.333Z,1.45
2022-11-16T07:43:42.327Z,1.58
2022-11-16T07:46:49.310Z,1.67
2022-11-16T07:49:54.664Z,1.60
2022-11-16T07:53:02.796Z,1.40
2022-11-16T07:56:09.195Z,1.63
2022-11-16T07:59:14.029Z,1.60
2022-11-16T08:02:21.730Z,1.30
2022-11-16T08:05:28.381Z,1.77
2022-11-16T08:08:33.746Z,1.45
2022-11-16T08:11:38.562Z,1.50
2022-11-16T08:14:43.162Z,1.48
2022-11-16T08:17:47.830Z,1.40
2022-11-16T08:20:52.616Z,1.30
2022-11-16T08:23:58.816Z,1.50
2022-11-16T08:27:04.584Z,1.40
2022-11-16T08:30:10.759Z,1.05
2022-11-16T08:33:17.845Z,1.52
2022-11-16T08:36:22.902Z,1.20
2022-11-16T08:39:27.672Z,1.13
2022-11-16T08:42:32.714Z,1.30
2022-11-16T08:45:38.676Z,1.30
2022-11-16T08:48:43.663Z,1.15
2022-11-16T08:51:47.984Z,1.50
2022-11-16T08:54:52.645Z,1.52
2022-11-16T08:57:57.299Z,1.38
2022-11-16T09:01:13.829Z,1.38
2022-11-16T09:04:18.714Z,1.45
2022-11-16T09:07:23.116Z,1.45
2022-11-16T09:10:27.725Z,1.35
2022-11-16T09:13:32.543Z,1.60
2022-11-16T09:16:37.076Z,1.50
2022-11-16T09:19:41.383Z,1.40
2022-11-16T09:22:45.729Z,1.42
2022-11-16T09:25:50.647Z,1.20
2022-11-16T09:29:00.950Z,1.80
2022-11-16T09:32:05.588Z,1.30
2022-11-16T09:35:10.252Z,1.13
2022-11-16T09:38:22.059Z,1.30
2022-11-16T09:42:00.442Z,1.45
2022-11-16T09:45:38.577Z,1.10
2022-11-16T09:48:43.357Z,0.90
2022-11-16T09:51:53.592Z,0.90
2022-11-16T09:55:06.503Z,1.10
2022-11-16T09:58:57.562Z,1.05
2022-11-16T10:02:28.603Z,1.20
2022-11-16T10:05:51.767Z,0.95
2022-11-16T10:08:56.771Z,1.35
2022-11-16T10:12:30.410Z,0.85
2022-11-16T10:16:06.382Z,1.23
2022-11-16T10:19:53.253Z,1.10
2022-11-16T10:23:10.120Z,1.00
2022-11-16T10:26:34.740Z,1.38
2022-11-16T10:30:14.044Z,1.00
2022-11-16T10:33:22.241Z,1.10
2022-11-16T10:36:31.089Z,1.02
2022-11-16T10:39:40.900Z,1.42
2022-11-16T10:43:05.342Z,1.30
2022-11-16T10:50:00.619Z,1.17
2022-11-16T10:53:05.251Z,1.20
2022-11-16T10:56:39.618Z,1.30
2022-11-16T10:59:48.264Z,0.77
2022-11-16T11:02:53.411Z,1.10
2022-11-16T11:05:58.414Z,1.05
2022-11-16T11:09:25.857Z,1.08
2022-11-16T11:12:39.995Z,1.45
2022-11-16T11:15:45.277Z,1.10
2022-11-16T11:18:51.386Z,1.45
2022-11-16T11:22:00.135Z,1.00
2022-11-16T11:25:18.924Z,1.67
2022-11-16T11:28:33.606Z,1.55
2022-11-16T11:32:01.258Z,1.30
2022-11-16T11:35:06.797Z,1.50
2022-11-16T11:38:15.563Z,1.05
2022-11-16T11:41:20.520Z,1.38
2022-11-16T11:44:49.832Z,1.65
2022-11-16T11:48:02.793Z,1.50
2022-11-16T11:51:40.170Z,1.67
2022-11-16T11:54:49.104Z,1.90
2022-11-16T11:57:54.780Z,1.48
2022-11-16T12:01:31.895Z,1.00
2022-11-16T12:05:28.427Z,1.20
2022-11-16T12:08:42.919Z,1.23
2022-11-16T12:12:14.679Z,1.30
2022-11-16T12:15:40.461Z,1.42
2022-11-16T12:18:57.041Z,1.50
2022-11-16T12:22:35.098Z,1.13
2022-11-16T12:26:02.827Z,1.20
2022-11-16T12:29:21.092Z,1.15
2022-11-16T12:32:49.250Z,0.90
2022-11-16T12:36:24.543Z,1.10
2022-11-16T12:39:44.439Z,1.00
2022-11-16T12:42:57.550Z,1.10
2022-11-16T12:46:10.705Z,1.00
2022-11-16T12:50:21.690Z,0.95
2022-11-16T12:53:41.393Z,0.80
2022-11-16T12:57:04.740Z,1.00
2022-11-16T13:00:19.829Z,0.90
2022-11-16T13:03:46.778Z,1.60
2022-11-16T13:07:10.932Z,1.02
2022-11-16T13:10:33.404Z,1.40
2022-11-16T13:13:40.447Z,0.90
2022-11-16T13:16:47.231Z,1.15
2022-11-16T13:20:40.227Z,1.38
2022-11-16T13:24:15.913Z,0.88
2022-11-16T13:27:39.105Z,1.20
2022-11-16T13:31:19.104Z,1.20
2022-11-16T13:34:28.969Z,1.30
2022-11-16T13:37:39.370Z,1.02
2022-11-16T13:40:44.188Z,0.90
2022-11-16T13:43:49.669Z,0.93
2022-11-16T13:47:06.041Z,1.42
2022-11-16T13:50:20.006Z,1.05
2022-11-16T13:54:37.795Z,1.33
2022-11-16T13:57:21.142Z,0.73
2022-11-16T14:00:53.769Z,0.68
2022-11-16T14:04:55.153Z,0.80
2022-11-16T14:08:19.476Z,0.70
2022-11-16T14:11:40.713Z,1.08
2022-11-16T14:15:16.731Z,1.15
2022-11-16T14:18:21.170Z,0.70
2022-11-16T14:22:05.716Z,0.80
2022-11-16T14:29:01.592Z,1.20
2022-11-16T14:32:23.385Z,0.90
2022-11-16T14:35:34.485Z,1.00
2022-11-16T14:38:42.291Z,0.98
2022-11-16T14:41:47.498Z,0.90
2022-11-16T14:45:14.095Z,0.80
2022-11-16T14:48:21.985Z,0.60
2022-11-16T14:51:35.476Z,0.70
2022-11-16T14:54:53.611Z,0.88
2022-11-16T14:58:22.281Z,0.70
2022-11-16T15:01:35.785Z,0.80
2022-11-16T15:04:40.453Z,0.93
2022-11-16T15:07:50.031Z,0.90
2022-11-16T15:10:54.913Z,0.80
2022-11-16T15:13:59.595Z,0.90
2022-11-16T15:17:06.847Z,0.93
2022-11-16T15:20:18.029Z,0.70
2022-11-16T15:23:31.029Z,0.80
2022-11-16T15:26:38.317Z,0.80
2022-11-16T15:29:42.880Z,0.80
2022-11-16T15:32:50.408Z,0.90
2022-11-16T15:35:55.812Z,0.95
2022-11-16T15:39:02.332Z,0.70
2022-11-16T15:42:14.269Z,0.80
2022-11-16T15:45:23.395Z,0.77
2022-11-16T15:48:28.494Z,0.75
2022-11-16T15:51:33.162Z,0.70
2022-11-16T15:54:56.388Z,0.63
2022-11-16T15:58:12.312Z,0.65
2022-11-16T16:01:17.975Z,1.15
2022-11-16T16:04:23.142Z,0.90
2022-11-16T16:07:43.960Z,0.93
2022-11-16T16:11:03.342Z,0.88
2022-11-16T16:14:10.808Z,1.10
2022-11-16T16:17:26.759Z,0.90
2022-11-16T16:20:33.014Z,0.80
2022-11-16T16:23:50.160Z,1.00
2022-11-16T16:26:54.806Z,1.20
2022-11-16T16:30:05.424Z,1.20
2022-11-16T16:33:19.634Z,1.13
2022-11-16T16:39:28.384Z,1.48
2022-11-16T16:42:33.307Z,1.10
2022-11-16T16:45:43.080Z,1.02
2022-11-16T16:48:47.990Z,1.00
2022-11-16T16:51:52.896Z,1.35
2022-11-16T16:54:57.818Z,1.10
2022-11-16T16:58:02.953Z,1.00
2022-11-16T17:01:07.390Z,1.67
2022-11-16T17:04:11.973Z,1.48
2022-11-16T17:07:17.471Z,1.35
2022-11-16T17:10:22.749Z,1.33
2022-11-16T17:13:27.728Z,1.50
2022-11-16T17:16:33.091Z,1.92
2022-11-16T17:19:37.796Z,1.50
2022-11-16T17:22:42.517Z,1.10
2022-11-16T17:25:47.200Z,1.75
2022-11-16T17:28:58.490Z,1.75
2022-11-16T17:32:03.969Z,1.38
2022-11-16T17:35:09.883Z,1.35
2022-11-16T17:38:14.627Z,1.65
2022-11-16T17:41:25.274Z,1.27
2022-11-16T17:44:30.451Z,1.48
2022-11-16T17:47:35.329Z,1.63
2022-11-16T17:50:46.639Z,1.67
2022-11-16T17:53:51.704Z,2.22
2022-11-16T17:56:56.613Z,1.52
2022-11-16T18:00:01.522Z,1.50
2022-11-16T18:03:06.269Z,1.75
2022-11-16T18:06:14.810Z,1.67
2022-11-16T18:09:19.495Z,2.03
2022-11-16T18:12:24.191Z,2.30
2022-11-16T18:15:29.400Z,1.60
2022-11-16T18:18:34.836Z,1.45
2022-11-16T18:21:41.171Z,1.35
2022-11-16T18:24:46.126Z,1.50
2022-11-16T18:27:53.133Z,1.80
2022-11-16T18:31:15.720Z,1.33
2022-11-16T18:34:20.036Z,2.33
2022-11-16T18:37:24.564Z,2.08
2022-11-16T18:40:29.781Z,2.55
2022-11-16T18:43:35.155Z,1.75
2022-11-16T18:46:40.216Z,1.83
2022-11-16T18:49:45.130Z,1.90
2022-11-16T18:52:49.849Z,2.63
2022-11-16T18:55:58.110Z,2.53
2022-11-16T18:59:03.417Z,2.10
2022-11-16T19:02:12.582Z,1.75
2022-11-16T19:05:16.956Z,2.30
2022-11-16T19:08:21.352Z,2.63
2022-11-16T19:11:28.083Z,2.33
2022-11-16T19:14:32.947Z,2.80
2022-11-16T19:17:59.307Z,2.35
2022-11-16T19:21:15.211Z,2.05
2022-11-16T19:24:19.831Z,2.38
2022-11-16T19:27:24.364Z,1.80
2022-11-16T19:30:29.417Z,1.80
2022-11-16T19:33:34.906Z,2.03
2022-11-16T19:36:40.112Z,2.08
2022-11-16T19:39:44.665Z,2.70
2022-11-16T19:42:48.842Z,2.20
2022-11-16T19:45:53.288Z,3.08
2022-11-16T19:48:59.395Z,2.83
2022-11-16T19:52:05.111Z,2.17
2022-11-16T19:55:09.951Z,2.25
2022-11-16T19:58:14.313Z,2.17
2022-11-16T20:01:26.201Z,2.40
2022-11-16T20:04:34.379Z,1.90
2022-11-16T20:07:38.945Z,1.67
2022-11-16T20:10:43.940Z,2.15
2022-11-16T20:13:50.790Z,2.30
2022-11-16T20:16:55.399Z,2.42
2022-11-16T20:20:00.311Z,2.50
2022-11-16T20:23:04.839Z,5.25
2022-11-16T20:26:11.699Z,8.45
2022-11-16T20:29:18.795Z,5.93
2022-11-16T20:32:25.041Z,4.45
2022-11-16T20:35:29.911Z,3.85
2022-11-16T20:38:38.970Z,2.97
2022-11-16T20:41:44.137Z,2.95
2022-11-16T20:44:48.525Z,2.40
2022-11-16T20:47:52.946Z,2.72
2022-11-16T20:50:57.543Z,2.08
2022-11-16T20:54:02.554Z,2.30
2022-11-16T20:57:06.921Z,2.42
2022-11-16T21:00:13.064Z,2.30
2022-11-16T21:03:17.807Z,2.20
2022-11-16T21:06:22.567Z,2.13
2022-11-16T21:09:27.917Z,1.90
2022-11-16T21:12:50.827Z,2.50
2022-11-16T21:16:11.468Z,1.90
2022-11-16T21:19:16.845Z,2.28
2022-11-16T21:22:21.578Z,2.28
2022-11-16T21:25:25.925Z,2.10
2022-11-16T21:28:30.435Z,2.38
2022-11-16T21:31:36.710Z,2.83
2022-11-16T21:34:41.225Z,2.45
2022-11-16T21:37:45.944Z,2.22
2022-11-16T21:40:50.951Z,3.00
2022-11-16T21:43:55.993Z,2.75
2022-11-16T21:47:00.737Z,1.85
2022-11-16T21:50:30.472Z,2.50
2022-11-16T21:53:30.617Z,1.70
2022-11-16T21:56:34.903Z,1.85
2022-11-16T21:59:39.618Z,2.20
2022-11-16T22:02:43.959Z,2.05
2022-11-16T22:06:14.894Z,2.00
2022-11-16T22:09:20.201Z,2.42
2022-11-16T22:12:24.623Z,2.63
2022-11-16T22:15:29.465Z,2.35
2022-11-16T22:18:34.848Z,1.95
2022-11-16T22:21:39.289Z,2.00
2022-11-16T22:24:44.047Z,2.58
2022-11-16T22:28:13.796Z,2.95
2022-11-16T22:31:15.067Z,2.88
2022-11-16T22:34:19.733Z,2.35
2022-11-16T22:37:24.876Z,2.17
2022-11-16T22:40:29.326Z,2.55
2022-11-16T22:43:34.014Z,2.45
2022-11-16T22:46:38.847Z,2.17
2022-11-16T22:49:43.587Z,2.17
2022-11-16T22:52:48.360Z,2.40
2022-11-16T22:55:52.818Z,2.47
2022-11-16T22:58:58.664Z,2.42
2022-11-16T23:02:05.745Z,3.05
2022-11-16T23:05:10.179Z,2.63
2022-11-16T23:08:14.617Z,2.97
2022-11-16T23:11:42.569Z,2.28
2022-11-16T23:15:05.354Z,2.28
2022-11-16T23:18:10.348Z,2.85
2022-11-16T23:21:33.417Z,2.20
2022-11-16T23:24:56.373Z,2.00
2022-11-16T23:28:15.298Z,2.38
2022-11-16T23:31:19.846Z,2.95
2022-11-16T23:34:24.372Z,3.05
2022-11-16T23:37:28.701Z,2.20
2022-11-16T23:40:36.524Z,2.33
2022-11-16T23:43:59.050Z,1.90
2022-11-16T23:47:03.752Z,2.20
2022-11-16T23:50:09.146Z,2.53
2022-11-16T23:53:14.276Z,2.53
2022-11-16T23:56:20.584Z,2.33
2022-11-16T23:59:25.505Z,2.45
